Time;durP1;ratioP1;P1;durP2;ratioP2;P2;SDS_P1;SDS_P2;PMS_P1;PMS_P2;Temp;Humidity;BMP_temperature;BMP_pressure;BME280_temperature;BME280_humidity;BME280_pressure;Samples;Min_cycle;Max_cycle;Signal;HPM_P1;HPM_P2
2023/05/13 00:00:07;;;;;;;12.70;7.28;;;;;;;9.23;100.00;99045.28;4500590;31;20095;-64
2023/05/13 00:02:34;;;;;;;14.32;7.53;;;;;;;9.30;100.00;99053.47;4500828;31;20763;-64
2023/05/13 00:05:01;;;;;;;10.75;6.90;;;;;;;9.28;100.00;99052.75;4500582;31;20123;-64
2023/05/13 00:07:29;;;;;;;11.80;7.55;;;;;;;9.28;100.00;99045.75;4500870;31;20573;-64
2023/05/13 00:09:56;;;;;;;10.45;6.78;;;;;;;9.20;100.00;99048.13;4500681;31;20143;-64
2023/05/13 00:12:23;;;;;;;10.60;6.90;;;;;;;9.25;100.00;99051.22;4494814;31;20148;-64
2023/05/13 00:14:50;;;;;;;11.32;6.90;;;;;;;9.24;100.00;99047.75;4488435;31;20111;-65
2023/05/13 00:17:17;;;;;;;12.43;7.47;;;;;;;9.25;100.00;99051.22;4500649;31;20092;-64
2023/05/13 00:19:44;;;;;;;11.38;6.78;;;;;;;9.21;100.00;99048.00;4499172;31;20110;-64
2023/05/13 00:22:11;;;;;;;12.65;6.95;;;;;;;9.26;100.00;99050.25;4500474;31;20099;-64
2023/05/13 00:24:39;;;;;;;10.68;7.12;;;;;;;9.24;100.00;99049.56;4498933;31;20167;-64
2023/05/13 00:27:07;;;;;;;11.40;7.05;;;;;;;9.18;100.00;99044.81;4500475;31;20178;-64
2023/05/13 00:29:34;;;;;;;12.37;7.70;;;;;;;9.16;100.00;99050.16;4500520;31;20525;-64
2023/05/13 00:32:02;;;;;;;13.25;7.78;;;;;;;9.11;100.00;99049.69;4500383;31;20598;-64
2023/05/13 00:34:29;;;;;;;11.68;7.43;;;;;;;9.13;100.00;99052.16;4500146;31;20091;-64
2023/05/13 00:36:56;;;;;;;14.27;7.53;;;;;;;9.15;100.00;99051.09;4500617;31;20179;-64
2023/05/13 00:39:24;;;;;;;11.88;8.18;;;;;;;9.05;100.00;99043.19;4500255;31;20091;-64
2023/05/13 00:41:51;;;;;;;10.25;7.15;;;;;;;9.04;100.00;99049.34;4500315;31;20455;-64
2023/05/13 00:44:18;;;;;;;11.05;7.05;;;;;;;9.10;100.00;99052.41;4500091;31;20465;-64
2023/05/13 00:46:45;;;;;;;12.00;7.28;;;;;;;9.06;100.00;99051.84;4500292;31;20134;-64
2023/05/13 00:49:12;;;;;;;13.82;7.60;;;;;;;9.05;100.00;99058.00;4500017;31;20088;-64
2023/05/13 00:51:40;;;;;;;11.77;7.53;;;;;;;9.01;100.00;99052.19;4499981;31;20430;-64
2023/05/13 00:54:07;;;;;;;14.90;7.32;;;;;;;9.03;100.00;99052.09;4499089;31;20205;-64
2023/05/13 00:56:37;;;;;;;12.48;6.90;;;;;;;9.03;100.00;99055.50;4500278;31;20092;-64
2023/05/13 00:59:04;;;;;;;11.73;7.12;;;;;;;9.02;100.00;99056.47;4500190;31;20148;-64
2023/05/13 01:01:44;;;;;;;10.68;6.22;;;;;;;9.03;100.00;99060.75;4500124;31;20181;-64
2023/05/13 01:04:23;;;;;;;11.15;6.70;;;;;;;9.02;100.00;99056.47;4499848;31;20142;-64
2023/05/13 01:07:00;;;;;;;12.00;6.30;;;;;;;9.00;100.00;99063.59;4500003;31;20134;-64
2023/05/13 01:09:40;;;;;;;12.68;6.60;;;;;;;8.99;100.00;99056.72;4498790;31;20127;-64
2023/05/13 01:12:15;;;;;;;9.82;6.85;;;;;;;8.99;100.00;99061.09;4497548;31;20536;-64
2023/05/13 01:15:01;;;;;;;11.27;7.47;;;;;;;8.97;100.00;99063.84;4474190;31;20457;-64
2023/05/13 01:17:55;;;;;;;9.10;6.12;;;;;;;8.88;100.00;99065.38;4500764;31;20170;-64
2023/05/13 01:20:23;;;;;;;12.25;6.45;;;;;;;8.88;100.00;99070.59;4501622;31;20104;-64
2023/05/13 01:22:50;;;;;;;11.02;6.87;;;;;;;8.90;100.00;99072.28;4501866;31;20101;-64
2023/05/13 01:25:18;;;;;;;11.52;6.50;;;;;;;8.88;100.00;99067.97;4501739;31;20180;-64
2023/05/13 01:27:45;;;;;;;14.18;7.25;;;;;;;8.88;100.00;99064.56;4501976;31;20083;-64
2023/05/13 01:30:13;;;;;;;11.73;6.80;;;;;;;8.94;100.00;99071.91;4502035;31;20441;-64
2023/05/13 01:32:41;;;;;;;12.07;7.05;;;;;;;8.81;100.00;99069.44;4500686;31;20097;-64
2023/05/13 01:35:09;;;;;;;11.70;6.70;;;;;;;8.89;100.00;99071.44;4501855;31;20335;-64
2023/05/13 01:37:37;;;;;;;11.57;7.07;;;;;;;8.87;100.00;99062.87;4501997;31;20107;-64
2023/05/13 01:40:05;;;;;;;10.88;6.82;;;;;;;8.81;100.00;99069.44;4501818;31;20583;-64
2023/05/13 01:42:47;;;;;;;13.98;6.43;;;;;;;8.84;100.00;99073.56;4500922;31;20137;-64
2023/05/13 01:45:15;;;;;;;10.98;6.25;;;;;;;8.78;100.00;99066.22;4501696;31;20092;-64
2023/05/13 01:47:42;;;;;;;10.30;6.87;;;;;;;8.80;100.00;99074.78;4502043;31;20103;-64
2023/05/13 01:50:10;;;;;;;8.52;6.22;;;;;;;8.79;100.00;99080.94;4501848;31;20114;-64
2023/05/13 01:52:39;;;;;;;12.70;7.75;;;;;;;8.80;100.00;99066.94;4501747;31;20151;-64
2023/05/13 01:55:06;;;;;;;11.10;6.70;;;;;;;8.71;100.00;99073.69;4501741;31;20156;-64
2023/05/13 01:57:35;;;;;;;9.57;6.45;;;;;;;8.68;100.00;99069.53;4501658;31;20131;-64
2023/05/13 02:00:03;;;;;;;11.15;6.90;;;;;;;8.77;100.00;99072.41;4501846;31;20159;-64
2023/05/13 02:02:40;;;;;;;10.82;6.68;;;;;;;8.74;100.00;99070.03;4501620;31;20080;-64
2023/05/13 02:05:07;;;;;;;13.45;6.70;;;;;;;8.75;100.00;99067.28;4501542;31;20111;-64
2023/05/13 02:07:36;;;;;;;10.45;6.75;;;;;;;8.75;100.00;99076.88;4501797;31;20126;-64
2023/05/13 02:10:03;;;;;;;13.30;7.95;;;;;;;8.76;100.00;99071.56;4501553;31;20118;-64
2023/05/13 02:12:31;;;;;;;11.85;7.32;;;;;;;8.67;100.00;99077.47;4494952;31;20122;-64
2023/05/13 02:14:58;;;;;;;12.07;6.50;;;;;;;8.74;100.00;99070.03;4489940;31;20092;-64
2023/05/13 02:17:25;;;;;;;10.50;7.53;;;;;;;8.72;100.00;99069.28;4501646;31;20514;-64
2023/05/13 02:19:53;;;;;;;13.60;7.78;;;;;;;8.62;100.00;99066.56;4501479;31;20103;-64
2023/05/13 02:22:20;;;;;;;13.15;7.43;;;;;;;8.54;100.00;99067.16;4501539;31;20120;-64
2023/05/13 02:24:47;;;;;;;13.62;7.50;;;;;;;8.52;100.00;99063.81;4501334;31;20100;-64
2023/05/13 02:27:15;;;;;;;11.98;8.00;;;;;;;8.57;100.00;99074.75;4501357;31;20096;-64
2023/05/13 02:29:42;;;;;;;10.00;7.20;;;;;;;8.54;100.00;99069.78;4501307;31;20095;-64
2023/05/13 02:32:10;;;;;;;14.05;8.60;;;;;;;8.60;100.00;99074.53;4501533;31;20566;-64
2023/05/13 02:34:37;;;;;;;18.17;8.98;;;;;;;8.60;100.00;99071.91;4499874;31;20108;-64
2023/05/13 02:37:05;;;;;;;16.80;8.43;;;;;;;8.52;100.00;99077.72;4501314;31;20525;-64
2023/05/13 02:39:33;;;;;;;17.42;9.15;;;;;;;8.60;100.00;99068.44;4501571;31;20088;-64
2023/05/13 02:42:01;;;;;;;14.63;9.48;;;;;;;8.56;100.00;99075.69;4501308;31;20563;-64
2023/05/13 02:44:30;;;;;;;13.77;8.75;;;;;;;8.46;100.00;99075.56;4501509;31;20130;-64
2023/05/13 02:46:57;;;;;;;19.08;9.15;;;;;;;8.55;100.00;99074.03;4499972;31;20147;-64
2023/05/13 02:49:24;;;;;;;12.95;8.00;;;;;;;8.53;100.00;99079.37;4501692;31;20557;-64
2023/05/13 02:51:51;;;;;;;14.75;10.00;;;;;;;8.49;100.00;99075.34;4500868;31;20084;-64
2023/05/13 02:54:20;;;;;;;16.83;9.30;;;;;;;8.41;100.00;99080.25;4501449;31;20511;-64
2023/05/13 02:56:47;;;;;;;15.80;9.45;;;;;;;8.53;100.00;99081.16;4501273;31;20127;-64
2023/05/13 02:59:15;;;;;;;14.38;9.05;;;;;;;8.52;100.00;99082.09;4501511;31;20087;-64
2023/05/13 03:01:42;;;;;;;15.18;8.95;;;;;;;8.54;100.00;99082.81;4501058;31;20140;-64
2023/05/13 03:04:09;;;;;;;14.45;8.07;;;;;;;8.50;100.00;99079.59;4501237;31;20415;-64
2023/05/13 03:06:37;;;;;;;14.60;8.85;;;;;;;8.46;100.00;99086.03;4501163;31;20123;-64
2023/05/13 03:09:04;;;;;;;12.48;8.23;;;;;;;8.42;100.00;99081.09;4501287;31;20095;-64
2023/05/13 03:11:32;;;;;;;15.40;9.30;;;;;;;8.39;100.00;99074.34;4500654;31;20110;-64
2023/05/13 03:14:00;;;;;;;13.93;8.30;;;;;;;8.40;100.00;99086.41;4484030;32;20105;-64
2023/05/13 03:16:27;;;;;;;17.37;9.23;;;;;;;8.40;100.00;99088.22;4499297;31;20092;-64
2023/05/13 03:18:54;;;;;;;13.40;8.23;;;;;;;8.35;100.00;99089.38;4500993;31;20528;-64
2023/05/13 03:21:22;;;;;;;18.92;9.25;;;;;;;8.34;100.00;99087.75;4500921;31;20492;-64
2023/05/13 03:23:49;;;;;;;12.85;8.18;;;;;;;8.35;100.00;99097.22;4501023;31;20088;-64
2023/05/13 03:26:18;;;;;;;14.00;7.82;;;;;;;8.37;100.00;99088.44;4499862;31;20163;-64
2023/05/13 03:28:46;;;;;;;13.62;8.05;;;;;;;8.30;100.00;99091.50;4501072;31;20087;-64
2023/05/13 03:31:13;;;;;;;11.20;7.30;;;;;;;8.41;100.00;99089.88;4501324;31;20442;-64
2023/05/13 03:33:41;;;;;;;11.12;7.70;;;;;;;8.36;100.00;99087.63;4500071;31;20115;-64
2023/05/13 03:36:09;;;;;;;12.07;8.13;;;;;;;8.31;100.00;99100.16;4499748;31;20104;-64
2023/05/13 03:38:36;;;;;;;12.27;7.47;;;;;;;8.25;100.00;99106.69;4500859;31;20098;-64
2023/05/13 03:41:03;;;;;;;11.45;7.78;;;;;;;8.25;100.00;99104.09;4501099;31;20667;-64
2023/05/13 03:43:31;;;;;;;14.55;7.00;;;;;;;8.24;100.00;99102.41;4501194;31;20100;-64
2023/05/13 03:46:00;;;;;;;10.65;6.35;;;;;;;8.25;100.00;99098.00;4499812;31;20107;-64
2023/05/13 03:48:27;;;;;;;13.43;7.78;;;;;;;8.24;100.00;99101.59;4501107;31;20084;-64
2023/05/13 03:50:55;;;;;;;13.77;7.68;;;;;;;8.22;100.00;99104.31;4500863;31;20122;-64
2023/05/13 03:53:22;;;;;;;11.68;7.57;;;;;;;8.22;100.00;99106.06;4499140;31;20457;-64
2023/05/13 03:55:50;;;;;;;12.77;7.03;;;;;;;8.21;100.00;99101.81;4500743;31;20084;-64
2023/05/13 03:58:18;;;;;;;12.20;7.20;;;;;;;8.24;100.00;99109.41;4500530;31;20087;-64
2023/05/13 04:00:46;;;;;;;12.95;7.20;;;;;;;8.24;100.00;99122.47;4501102;31;20100;-64
2023/05/13 04:03:15;;;;;;;12.68;7.53;;;;;;;8.25;100.00;99124.13;4500847;31;20579;-64
2023/05/13 04:05:44;;;;;;;10.25;6.90;;;;;;;8.29;100.00;99121.16;4500711;31;20099;-64
2023/05/13 04:08:11;;;;;;;12.68;7.15;;;;;;;8.31;100.00;99116.69;4500470;31;20100;-64
2023/05/13 04:10:39;;;;;;;11.95;6.97;;;;;;;8.34;100.00;99121.66;4500764;31;20124;-64
2023/05/13 04:13:06;;;;;;;11.68;7.25;;;;;;;8.34;100.00;99120.81;4488646;31;20547;-64
2023/05/13 04:15:33;;;;;;;10.40;7.15;;;;;;;8.32;100.00;99120.94;4492936;31;20096;-64
2023/05/13 04:18:01;;;;;;;11.77;7.35;;;;;;;8.30;100.00;99120.22;4500616;31;20586;-64
2023/05/13 04:20:28;;;;;;;13.20;6.87;;;;;;;8.28;100.00;99124.75;4500438;31;20121;-64
2023/05/13 04:22:55;;;;;;;15.68;7.55;;;;;;;8.33;100.00;99125.22;4500391;31;20100;-64
2023/05/13 04:25:23;;;;;;;11.32;7.28;;;;;;;8.32;100.00;99130.56;4500680;31;20087;-64
2023/05/13 04:27:50;;;;;;;14.02;7.22;;;;;;;8.40;100.00;99132.59;4500372;31;20114;-64
2023/05/13 04:30:18;;;;;;;11.15;7.00;;;;;;;8.35;100.00;99128.53;4500672;31;20130;-64
2023/05/13 04:32:46;;;;;;;14.70;6.78;;;;;;;8.45;100.00;99136.56;4499257;31;20096;-64
2023/05/13 04:35:13;;;;;;;14.13;7.60;;;;;;;8.46;100.00;99132.16;4500450;31;20103;-64
2023/05/13 04:37:41;;;;;;;12.32;8.10;;;;;;;8.52;100.00;99136.91;4500625;31;20520;-64
2023/05/13 04:40:10;;;;;;;13.10;7.37;;;;;;;8.53;100.00;99139.41;4500429;31;20103;-64
2023/05/13 04:42:37;;;;;;;10.15;6.40;;;;;;;8.64;100.00;99141.22;4500209;31;20482;-64
2023/05/13 04:45:05;;;;;;;11.98;7.00;;;;;;;8.70;100.00;99140.78;4501092;31;20093;-64
2023/05/13 04:47:34;;;;;;;12.25;7.68;;;;;;;8.72;100.00;99138.06;4502449;31;20171;-64
2023/05/13 04:50:01;;;;;;;11.68;7.03;;;;;;;8.80;100.00;99142.69;4502113;31;20140;-64
2023/05/13 04:52:30;;;;;;;8.82;6.15;;;;;;;8.84;100.00;99142.34;4502016;31;20446;-64
2023/05/13 04:54:57;;;;;;;10.32;6.95;;;;;;;8.87;100.00;99149.09;4502019;31;20092;-64
2023/05/13 04:57:25;;;;;;;10.23;5.78;;;;;;;8.90;100.00;99154.09;4502462;31;20120;-64
2023/05/13 04:59:53;;;;;;;11.93;7.00;;;;;;;8.81;100.00;99152.19;4502130;31;20456;-64
2023/05/13 05:02:20;;;;;;;11.68;5.97;;;;;;;8.78;100.00;99152.41;4502407;31;20123;-64
2023/05/13 05:04:48;;;;;;;10.25;6.05;;;;;;;8.86;100.00;99155.28;4502266;31;20142;-64
2023/05/13 05:07:15;;;;;;;11.50;7.12;;;;;;;8.95;100.00;99157.19;4502258;31;20129;-64
2023/05/13 05:09:43;;;;;;;12.52;6.50;;;;;;;8.92;100.00;99164.41;4502192;31;20155;-64
2023/05/13 05:12:10;;;;;;;9.63;6.25;;;;;;;8.88;100.00;99162.03;4497882;31;20135;-64
2023/05/13 05:14:38;;;;;;;8.52;5.53;;;;;;;8.91;100.00;99163.59;4488252;31;20529;-64
2023/05/13 05:17:06;;;;;;;9.02;6.30;;;;;;;8.90;100.00;99161.94;4501988;31;20083;-64
2023/05/13 05:19:33;;;;;;;10.57;6.62;;;;;;;8.87;100.00;99165.63;4502008;31;20084;-64
2023/05/13 05:22:01;;;;;;;11.85;5.80;;;;;;;8.93;100.00;99166.91;4501905;31;20542;-64
2023/05/13 05:24:28;;;;;;;11.02;7.05;;;;;;;9.01;100.00;99164.56;4502187;31;20155;-64
2023/05/13 05:26:56;;;;;;;12.10;6.00;;;;;;;8.97;100.00;99170.97;4500536;31;20438;-64
2023/05/13 05:29:23;;;;;;;12.65;6.30;;;;;;;9.03;100.00;99167.88;4502078;31;20127;-64
2023/05/13 05:31:51;;;;;;;11.00;6.18;;;;;;;9.22;100.00;99166.50;4501997;31;20383;-64
2023/05/13 05:34:19;;;;;;;13.70;6.28;;;;;;;9.25;100.00;99166.25;4500244;31;20104;-64
2023/05/13 05:36:46;;;;;;;12.77;7.15;;;;;;;9.23;100.00;99168.13;4502203;31;20166;-64
2023/05/13 05:39:14;;;;;;;11.82;6.50;;;;;;;9.24;100.00;99164.59;4502079;31;20208;-64
2023/05/13 05:41:41;;;;;;;10.48;6.40;;;;;;;9.34;100.00;99167.31;4502209;31;20155;-64
2023/05/13 05:44:08;;;;;;;10.52;6.57;;;;;;;9.43;100.00;99166.56;4501916;31;20096;-64
2023/05/13 05:46:37;;;;;;;12.80;6.40;;;;;;;9.59;100.00;99158.38;4501975;31;20437;-64
2023/05/13 05:49:07;;;;;;;10.45;6.18;;;;;;;9.54;100.00;99171.00;4501983;31;20084;-64
2023/05/13 05:51:35;;;;;;;9.13;6.00;;;;;;;9.58;100.00;99161.94;4500823;31;20143;-64
2023/05/13 05:54:02;;;;;;;9.40;6.00;;;;;;;9.77;100.00;99167.38;4501008;31;20495;-64
2023/05/13 05:56:30;;;;;;;10.25;7.00;;;;;;;9.63;100.00;99169.41;4501129;31;20088;-64
2023/05/13 05:58:57;;;;;;;10.63;6.35;;;;;;;9.69;100.00;99175.00;4501584;31;20123;-64
2023/05/13 06:01:26;;;;;;;9.70;6.32;;;;;;;9.74;100.00;99182.50;4502026;31;20120;-64
2023/05/13 06:03:54;;;;;;;7.60;5.20;;;;;;;9.77;100.00;99180.44;4501565;31;20100;-64
2023/05/13 06:06:21;;;;;;;10.75;6.20;;;;;;;9.81;100.00;99180.22;4500235;31;20096;-64
2023/05/13 06:08:48;;;;;;;9.73;6.35;;;;;;;9.85;100.00;99182.47;4501536;31;20496;-64
2023/05/13 06:11:16;;;;;;;14.80;6.47;;;;;;;9.97;100.00;99183.28;4501419;31;20512;-64
2023/05/13 06:13:43;;;;;;;8.05;5.35;;;;;;;9.97;100.00;99183.28;4501525;31;20477;-64
2023/05/13 06:16:10;;;;;;;10.93;6.50;;;;;;;10.29;100.00;99185.91;4489265;31;20114;-64
2023/05/13 06:18:37;;;;;;;10.40;5.37;;;;;;;10.48;100.00;99190.50;4485750;32;20096;-64
2023/05/13 06:21:04;;;;;;;8.60;5.30;;;;;;;10.46;100.00;99188.94;4485615;31;20165;-64
2023/05/13 06:23:32;;;;;;;8.40;5.65;;;;;;;10.47;100.00;99188.00;4485701;31;20093;-64
2023/05/13 06:25:59;;;;;;;7.12;5.07;;;;;;;10.50;100.00;99192.19;4485567;31;20453;-64
2023/05/13 06:28:26;;;;;;;7.22;4.78;;;;;;;10.45;100.00;99195.16;4485793;32;20092;-64
2023/05/13 06:30:55;;;;;;;11.70;5.70;;;;;;;10.47;100.00;99191.44;4485561;32;20101;-64
2023/05/13 06:33:22;;;;;;;9.88;4.43;;;;;;;10.71;100.00;99202.66;4485851;31;20122;-64
2023/05/13 06:35:50;;;;;;;6.95;4.43;;;;;;;10.64;100.00;99202.31;4485612;31;20085;-64
2023/05/13 06:38:17;;;;;;;6.60;4.32;;;;;;;10.53;100.00;99194.53;4485810;31;20168;-64
2023/05/13 06:40:44;;;;;;;7.95;5.20;;;;;;;10.43;100.00;99190.06;4485744;31;20115;-64
2023/05/13 06:43:15;;;;;;;7.82;4.75;;;;;;;10.33;100.00;99193.53;4484538;32;20142;-64
2023/05/13 06:45:43;;;;;;;6.93;4.22;;;;;;;10.37;100.00;99193.19;4485817;31;20104;-64
2023/05/13 06:48:12;;;;;;;8.60;4.75;;;;;;;10.37;100.00;99189.72;4485464;31;20110;-64
2023/05/13 06:50:40;;;;;;;8.98;5.35;;;;;;;10.39;100.00;99187.81;4485306;31;20097;-64
2023/05/13 06:53:10;;;;;;;8.48;5.03;;;;;;;10.52;100.00;99192.87;4485461;31;20542;-64
2023/05/13 06:55:40;;;;;;;12.57;5.25;;;;;;;10.46;100.00;99189.81;4483896;32;20186;-64
2023/05/13 06:58:08;;;;;;;9.32;4.93;;;;;;;10.73;100.00;99185.03;4485476;31;20096;-64
2023/05/13 07:00:38;;;;;;;7.75;4.25;;;;;;;10.64;100.00;99186.59;4485266;31;20100;-64
2023/05/13 07:03:06;;;;;;;12.23;5.43;;;;;;;10.87;100.00;99197.81;4485576;32;20530;-64
2023/05/13 07:05:34;;;;;;;8.52;4.93;;;;;;;10.90;100.00;99191.47;4485202;31;20099;-64
2023/05/13 07:08:05;;;;;;;7.53;4.65;;;;;;;10.81;100.00;99199.16;4484375;31;20513;-64
2023/05/13 07:10:34;;;;;;;7.18;4.93;;;;;;;10.82;100.00;99195.59;4485422;31;20434;-64
2023/05/13 07:13:03;;;;;;;7.37;4.95;;;;;;;10.98;100.00;99187.25;4495449;31;20121;-64
2023/05/13 07:15:30;;;;;;;10.88;5.45;;;;;;;11.16;100.00;99191.91;4492084;31;20529;-65
2023/05/13 07:17:57;;;;;;;9.43;5.35;;;;;;;11.51;100.00;99188.88;4485275;31;20156;-64
2023/05/13 07:20:25;;;;;;;7.10;5.07;;;;;;;11.38;100.00;99188.25;4492713;31;20127;-65
2023/05/13 07:22:52;;;;;;;9.23;5.15;;;;;;;11.50;100.00;99183.75;4485156;32;20169;-64
2023/05/13 07:25:20;;;;;;;7.45;4.57;;;;;;;11.39;100.00;99205.66;4485038;32;20425;-65
2023/05/13 07:27:47;;;;;;;6.10;4.57;;;;;;;11.21;100.00;99202.81;4485335;32;20485;-65
2023/05/13 07:30:14;;;;;;;6.53;4.57;;;;;;;11.39;100.00;99196.97;4485287;32;20168;-64
2023/05/13 07:32:42;;;;;;;6.70;4.50;;;;;;;11.59;100.00;99203.13;4485209;32;20148;-64
2023/05/13 07:35:09;;;;;;;6.37;4.50;;;;;;;11.48;100.00;99197.00;4484918;31;20088;-64
2023/05/13 07:37:36;;;;;;;8.43;4.07;;;;;;;11.78;100.00;99208.44;4483968;32;20171;-64
2023/05/13 07:40:05;;;;;;;6.57;3.90;;;;;;;11.83;100.00;99208.84;4485122;32;20478;-64
2023/05/13 07:42:32;;;;;;;5.68;3.90;;;;;;;12.00;100.00;99204.78;4485224;32;20100;-64
2023/05/13 07:44:59;;;;;;;5.32;4.03;;;;;;;12.04;100.00;99214.06;4485049;32;20783;-65
2023/05/13 07:47:27;;;;;;;5.57;4.22;;;;;;;11.64;100.00;99200.91;4485264;32;20390;-65
2023/05/13 07:49:55;;;;;;;9.63;5.65;;;;;;;11.53;100.00;99207.09;4469524;32;488728;-65
2023/05/13 07:52:22;;;;;;;8.25;4.80;;;;;;;11.76;100.00;99209.53;4484740;32;20084;-65
2023/05/13 07:54:49;;;;;;;7.40;4.00;;;;;;;11.95;100.00;99212.25;4485162;32;20394;-64
2023/05/13 07:57:16;;;;;;;7.95;3.72;;;;;;;12.15;100.00;99213.09;4484922;31;20092;-65
2023/05/13 07:59:44;;;;;;;5.03;3.67;;;;;;;12.05;100.00;99210.47;4484950;31;20513;-64
2023/05/13 08:02:11;;;;;;;5.40;3.70;;;;;;;11.85;100.00;99224.47;4484967;32;20124;-64
2023/05/13 08:04:39;;;;;;;6.85;3.70;;;;;;;11.79;100.00;99215.34;4484728;32;20186;-65
2023/05/13 08:07:07;;;;;;;4.45;3.10;;;;;;;11.69;100.00;99215.31;4485132;31;20088;-64
2023/05/13 08:09:34;;;;;;;4.57;3.10;;;;;;;11.52;100.00;99222.03;4484908;32;20157;-64
2023/05/13 08:12:01;;;;;;;5.75;3.17;;;;;;;11.62;100.00;99229.09;4488317;31;20179;-64
2023/05/13 08:14:28;;;;;;;6.05;3.80;;;;;;;11.43;100.00;99235.94;4499558;31;20110;-65
2023/05/13 08:16:55;;;;;;;4.87;3.45;;;;;;;11.56;100.00;99219.12;4484618;32;20533;-65
2023/05/13 08:19:23;;;;;;;5.87;4.20;;;;;;;11.70;100.00;99231.87;4484648;31;20574;-65
2023/05/13 08:21:50;;;;;;;4.40;3.15;;;;;;;11.94;100.00;99233.38;4484772;32;20157;-65
2023/05/13 08:24:17;;;;;;;14.48;6.30;;;;;;;11.84;100.00;99233.31;4484763;31;20092;-64
2023/05/13 08:26:46;;;;;;;8.18;4.93;;;;;;;11.81;100.00;99244.91;4484441;31;20113;-64
2023/05/13 08:29:14;;;;;;;11.30;5.68;;;;;;;11.77;100.00;99246.16;4484711;31;20444;-64
2023/05/13 08:31:41;;;;;;;8.45;4.68;;;;;;;11.90;100.00;99253.81;4484505;31;20115;-65
2023/05/13 08:34:10;;;;;;;5.60;3.85;;;;;;;11.99;100.00;99252.19;4484563;32;20091;-65
2023/05/13 08:36:37;;;;;;;5.75;4.30;;;;;;;12.47;100.00;99247.97;4484496;31;20495;-65
2023/05/13 08:39:04;;;;;;;6.90;3.90;;;;;;;12.36;100.00;99243.69;4484501;31;20168;-64
2023/05/13 08:41:33;;;;;;;5.10;3.20;;;;;;;12.24;100.00;99245.59;4484420;31;20482;-64
2023/05/13 08:44:04;;;;;;;4.35;3.58;;;;;;;12.27;100.00;99244.50;4484590;31;20092;-64
2023/05/13 08:46:32;;;;;;;5.57;3.35;;;;;;;12.32;100.00;99251.00;4484592;31;20531;-65
2023/05/13 08:49:00;;;;;;;6.55;3.40;;;;;;;12.56;100.00;99253.22;4484643;32;20147;-65
2023/05/13 08:51:27;;;;;;;4.97;3.37;;;;;;;12.56;100.00;99269.00;4484420;31;20127;-65
2023/05/13 08:53:55;;;;;;;5.87;4.20;;;;;;;12.77;100.00;99253.09;4484538;31;20480;-65
2023/05/13 08:56:27;;;;;;;7.10;4.37;;;;;;;12.91;100.00;99253.63;4484187;31;20160;-65
2023/05/13 08:58:54;;;;;;;6.15;4.15;;;;;;;12.73;100.00;99250.88;4484561;31;20093;-65
2023/05/13 09:01:22;;;;;;;4.72;3.55;;;;;;;12.78;100.00;99253.94;4484218;31;20621;-65
2023/05/13 09:03:54;;;;;;;5.32;3.80;;;;;;;12.55;100.00;99243.69;4482846;32;20088;-65
2023/05/13 09:06:22;;;;;;;5.10;3.95;;;;;;;12.85;100.00;99249.75;4483005;32;20129;-65
2023/05/13 09:08:49;;;;;;;6.93;4.07;;;;;;;13.09;100.00;99249.31;4484132;31;20092;-65
2023/05/13 09:11:16;;;;;;;6.12;4.62;;;;;;;12.90;100.00;99252.81;4482753;32;20449;-65
2023/05/13 09:13:43;;;;;;;7.75;4.82;;;;;;;12.64;100.00;99251.72;4482693;32;20653;-65
2023/05/13 09:16:12;;;;;;;6.47;4.75;;;;;;;12.88;100.00;99249.47;4496034;31;20123;-65
2023/05/13 09:18:40;;;;;;;7.85;4.10;;;;;;;12.82;100.00;99247.41;4498394;31;20108;-65
2023/05/13 09:21:28;;;;;;;6.57;4.47;;;;;;;12.99;100.00;99250.31;4499596;31;20173;-65
2023/05/13 09:24:04;;;;;;;7.70;4.35;;;;;;;12.72;100.00;99247.44;4499737;31;20110;-65
2023/05/13 09:26:33;;;;;;;6.90;3.75;;;;;;;12.89;100.00;99252.97;4499569;31;20096;-65
2023/05/13 09:29:21;;;;;;;7.45;4.78;;;;;;;12.88;100.00;99246.03;4499512;31;20508;-65
2023/05/13 09:31:54;;;;;;;8.40;4.40;;;;;;;13.22;100.00;99254.28;4501140;31;20512;-65
2023/05/13 09:34:29;;;;;;;6.53;4.22;;;;;;;12.68;100.00;99251.28;4501823;31;20079;-65
2023/05/13 09:36:56;;;;;;;5.97;3.85;;;;;;;13.01;100.00;99254.47;4501715;31;20067;-65
2023/05/13 09:39:25;;;;;;;6.47;4.93;;;;;;;12.75;100.00;99252.41;4502102;31;20100;-65
2023/05/13 09:41:52;;;;;;;5.62;4.28;;;;;;;12.98;100.00;99246.03;4501577;31;20083;-65
2023/05/13 09:44:20;;;;;;;6.72;4.22;;;;;;;13.29;100.00;99252.75;4501738;31;20139;-65
2023/05/13 09:46:50;;;;;;;7.05;4.40;;;;;;;13.51;100.00;99253.41;4501992;31;20100;-65
2023/05/13 09:49:17;;;;;;;7.68;4.55;;;;;;;13.57;100.00;99247.56;4500512;31;20095;-65
2023/05/13 09:51:44;;;;;;;5.90;4.43;;;;;;;13.94;100.00;99251.94;4501390;31;20165;-65
2023/05/13 09:54:12;;;;;;;6.05;3.95;;;;;;;13.82;100.00;99243.44;4500661;31;20119;-65
2023/05/13 09:56:39;;;;;;;6.53;3.78;;;;;;;13.91;100.00;99246.16;4500254;31;20096;-65
2023/05/13 09:59:06;;;;;;;5.20;3.70;;;;;;;14.14;100.00;99246.56;4501781;31;20088;-65
2023/05/13 10:01:35;;;;;;;5.95;4.10;;;;;;;14.08;100.00;99258.56;4501412;31;20121;-65
2023/05/13 10:04:04;;;;;;;6.55;4.22;;;;;;;13.80;100.00;99255.09;4501472;31;20112;-65
2023/05/13 10:06:32;;;;;;;13.13;4.05;;;;;;;13.94;100.00;99251.94;4501906;31;20135;-65
2023/05/13 10:09:03;;;;;;;4.60;3.42;;;;;;;13.90;100.00;99255.88;4500162;31;20171;-65
2023/05/13 10:11:32;;;;;;;4.22;3.45;;;;;;;13.80;100.00;99249.81;4500150;31;20160;-65
2023/05/13 10:14:01;;;;;;;5.80;3.58;;;;;;;13.76;100.00;99246.66;4484573;32;20100;-65
2023/05/13 10:16:29;;;;;;;4.90;3.97;;;;;;;13.65;100.00;99250.28;4484357;32;20116;-65
2023/05/13 10:18:59;;;;;;;6.68;3.70;;;;;;;13.38;100.00;99252.88;4484436;32;20127;-65
2023/05/13 10:21:27;;;;;;;5.82;4.30;;;;;;;13.23;100.00;99248.06;4485539;31;20163;-65
2023/05/13 10:23:55;;;;;;;5.85;4.30;;;;;;;12.90;100.00;99239.66;4485688;31;20163;-65
2023/05/13 10:26:24;;;;;;;6.80;3.90;;;;;;;13.20;100.00;99250.97;4485646;31;20096;-65
2023/05/13 10:28:53;;;;;;;5.45;4.47;;;;;;;13.19;100.00;99244.03;4484618;32;20123;-65
2023/05/13 10:31:20;;;;;;;6.35;4.25;;;;;;;13.00;100.00;99250.16;4484626;32;20506;-65
2023/05/13 10:33:50;;;;;;;5.32;3.85;;;;;;;12.86;100.00;99250.59;4485673;31;20100;-65
2023/05/13 10:36:29;;;;;;;5.40;4.28;;;;;;;12.85;100.00;99254.19;4484370;32;20084;-65
2023/05/13 10:39:39;;;;;;;7.43;3.80;;;;;;;12.79;100.00;99250.31;4485547;32;20084;-65
2023/05/13 10:42:41;;;;;;;5.35;3.80;;;;;;;12.67;100.00;99254.91;4484535;31;20136;-65
2023/05/13 10:45:09;;;;;;;5.72;3.97;;;;;;;12.47;100.00;99254.06;4485508;31;20089;-65
2023/05/13 10:47:37;;;;;;;5.80;4.50;;;;;;;12.60;100.00;99251.16;4485591;31;20095;-65
2023/05/13 10:50:07;;;;;;;7.40;4.12;;;;;;;12.67;100.00;99257.53;4485515;31;20100;-65
2023/05/13 10:52:42;;;;;;;10.20;4.47;;;;;;;12.96;100.00;99261.97;4483629;32;20096;-65
2023/05/13 10:55:15;;;;;;;5.65;4.30;;;;;;;13.13;100.00;99250.69;4484568;32;20108;-65
2023/05/13 10:58:03;;;;;;;6.40;4.25;;;;;;;13.13;100.00;99268.28;4485478;31;20076;-65
2023/05/13 11:00:30;;;;;;;8.48;4.20;;;;;;;12.95;100.00;99261.09;4485414;31;20476;-65
2023/05/13 11:03:08;;;;;;;6.07;4.00;;;;;;;12.92;100.00;99258.75;4485205;31;20554;-65
2023/05/13 11:05:57;;;;;;;8.38;4.47;;;;;;;12.77;100.00;99254.91;4485295;31;20096;-65
2023/05/13 11:08:45;;;;;;;6.22;4.30;;;;;;;12.31;100.00;99256.38;4485405;31;20101;-65
2023/05/13 11:11:21;;;;;;;6.12;4.40;;;;;;;12.52;100.00;99243.97;4485318;31;20104;-65
2023/05/13 11:13:53;;;;;;;7.05;4.57;;;;;;;12.87;100.00;99255.72;4500751;31;20208;-65
2023/05/13 11:16:22;;;;;;;8.15;4.12;;;;;;;13.19;100.00;99246.69;4488033;31;20084;-65
2023/05/13 11:18:51;;;;;;;6.68;4.68;;;;;;;13.32;100.00;99249.84;4485307;32;20383;-65
2023/05/13 11:21:38;;;;;;;7.53;5.50;;;;;;;13.36;100.00;99246.94;4485137;31;20161;-65
2023/05/13 11:24:09;;;;;;;6.78;4.57;;;;;;;13.02;100.00;99250.88;4485286;31;20102;-65
2023/05/13 11:26:46;;;;;;;7.10;4.70;;;;;;;13.03;100.00;99254.31;4485336;31;20497;-65
2023/05/13 11:29:14;;;;;;;6.90;4.68;;;;;;;12.76;100.00;99247.97;4485273;31;20073;-65
2023/05/13 11:31:43;;;;;;;7.28;4.78;;;;;;;12.76;100.00;99256.72;4485409;31;20099;-65